Aeroporto :
LOGIN :

Iscrizione | Disclaimer

   EN    FR    IT 

 










Sommario :    VFR   VFR Marginale   IFR   IFR Intensivo   IFR Molto Intensivo
Visibilità : 
Base nubi : 
>= 8 km
>= 3000ft
5 / 8 km
1000 / 3000 ft
1500m / 5 km
500 / 1000 ft
800 / 1500m
200 / 500 ft
< 800m
< 200 ft
Simboli :   Temporali  Nebbia  Neve Forte  Precipitazioni Forti  Vento > 20 kt
SIGMETs :   Varie  Temporali  Ghiacco  Turbolenza  Onda orograficha  Ceneri Vulcaniche






- Altitudine del aeroporto : 1197 ft
- Codice IATA : SPM


ETAD - Spangdahlem Ab

ULTIMO METAR :
  • 191556Z AUTO 00000KT 9999 CLR 02/00 A3004 RMK AO2 SLP180 T00150000 $

METARs OBSOLETI :
  • 191456Z AUTO 00000KT 9999 CLR 04/00 A3003 RMK AO2 SLP175 T00351002 55000 $
  • 191356Z AUTO 24005KT 9999 CLR 05/00 A3003 RMK AO2 SLP175 T00481004 $
  • 191326Z AUTO 26003KT 9999 FEW026 04/M01 A3003 RMK AO2 SLP175 $

TAF TAF ETAD
Valido dal 19 a 13 ore il 20 a 19 ore UTC


191300Z 1913/2019 VRB06KT 9999 SCT018 BKN025 620256 QNH3002INS
TEMPO 1913/1922 BKN016 OVC025 620253
BECMG 1923/1924 VRB04KT 8000 BR BKN010 QNH3006INS
BECMG 2001/2002 VRB04KT 3200 BR BKN007 QNH3002INS
BECMG 2007/2008 VRB04KT 8000 BR BKN007 QNH3002INS
BECMG 2008/2009 09012KT 9999 NSW BKN015 QNH3002INS TX04/1913Z TNM03/2004Z



MetMap, La meteo Aeronautica in un colpo d'occhio ! - Copyright ORBIFLY Dicembre 2007 - Disclaimer

ORBIFLY MET'MAP TEAM :

Programmazione e sviluppo : Alexandra Zaïnal
Concezione e sviluppo : Baudouin d'Aumeries
Co-Programmazione e sviluppo : Marc-Olivier Méhu
Supporto tecnico e logistico : Manuel Goepfert
Aiuto per la traduzione : Arnaldo La Scala

Contatto : metmap@orbifly.com




FONTI E CREDITI :

   NOAA